Thunder radar more information blitzortung!


Radar de pluja more information rain snow radar


Visita la nostra xarxa de llocs de meteo:

Template documentation
and downloads

And another site



No particular awareness of the weather is required.    There are no Weather-warnings

Pagina Historial Weather Underground text

Diari Resum Octubre 5, 2017 Unitats:  Imperial    Mètric   Tant
« Previous Dia
SegĂźent Dia »
Diari Setmana Mensual Anual Personalitzada
  Maxima: Minima: Media:
Temperatura: TemperatureC °F 14.8 °F 22.5 °F
Punt de rosada: DewpointC °F 13.3 °F 16.7 °F
Humitat: Humidity % 51 % 71 %
Wind Speed: WindSpeedKMH mph 0.0 mph 6 mph
RĂ fegues de vent: WindSpeedGustKMH mph - -
Vent:- - SW
Pression baro: PressurehPa in 1016.8 in -
Precipitacions: 0.0 in    
Historical Graphs
 
 
Dades de taula per Octubre 5, 2017
Temps Temperatura Punt de rosada Pression baro Vent Wind Speed RĂ fegues de vent Humitat Rainfall Rate (Hourly)
TemperatureC °F DewpointC °F PressurehPa in Calm     Humidity % HourlyPrecipMM in
00:00 17.1 °F 14.9 °F 1021.9 in Calm     87 % 0.0 in
00:04 19.4 °F 17.0 °F 1024.9 in Calm     86 % 0.0 in
00:10 17.0 °F 14.8 °F 1021.9 in WNW 1.6 mph 1.6 mph 87 % 0.0 in
00:30 16.7 °F 14.7 °F 1022.9 in Calm     88 % 0.0 in
01:00 16.1 °F 14.1 °F 1021.9 in Calm     88 % 0.0 in
01:10 16.0 °F 14.2 °F 1021.9 in Calm     89 % 0.0 in
01:20 15.8 °F 14.0 °F 1021.9 in Calm     89 % 0.0 in
01:30 15.8 °F 14.0 °F 1021.9 in Calm     89 % 0.0 in
01:40 15.6 °F 13.8 °F 1021.9 in NW 1.6 mph 3.2 mph 89 % 0.0 in
01:50 15.5 °F 13.9 °F 1021.9 in Calm     90 % 0.0 in
02:00 15.3 °F 13.5 °F 1021.9 in Calm     89 % 0.0 in
02:10 15.1 °F 13.4 °F 1021.9 in Calm     90 % 0.0 in
02:20 15.1 °F 13.4 °F 1021.9 in Calm     90 % 0.0 in
02:50 15.0 °F 13.4 °F 1021.9 in Calm     90 % 0.0 in
03:00 14.9 °F 13.4 °F 1021.9 in Calm     91 % 0.0 in
03:10 14.8 °F 13.3 °F 1021.9 in Calm     91 % 0.0 in
03:20 14.9 °F 13.4 °F 1021.9 in Calm     91 % 0.0 in
03:30 14.9 °F 13.6 °F 1021.9 in Calm     92 % 0.0 in
03:40 15.6 °F 14.4 °F 1021.9 in Calm     93 % 0.0 in
03:50 15.6 °F 14.3 °F 1020.9 in Calm   1.6 mph 92 % 0.0 in
04:00 15.4 °F 13.9 °F 1021.9 in South 1.6 mph 3.2 mph 91 % 0.0 in
04:10 15.6 °F 14.1 °F 1021.9 in SW 1.6 mph 3.2 mph 91 % 0.0 in
04:20 16.5 °F 15.2 °F 1021.9 in Calm     92 % 0.0 in
04:40 17.4 °F 15.4 °F 1021.9 in South 1.6 mph 3.2 mph 88 % 0.0 in
04:50 18.4 °F 16.2 °F 1021.9 in SSW 1.6 mph 3.2 mph 87 % 0.0 in
05:00 19.0 °F 16.2 °F 1021.9 in SSE 1.6 mph 3.2 mph 84 % 0.0 in
05:10 19.8 °F 16.8 °F 1021.9 in SSE 1.6 mph 3.2 mph 83 % 0.0 in
05:20 20.7 °F 17.1 °F 1021.9 in SE 1.6 mph 3.2 mph 80 % 0.0 in
05:30 21.2 °F 17.2 °F 1020.9 in ESE 1.6 mph 4.8 mph 78 % 0.0 in
05:40 21.8 °F 17.6 °F 1020.9 in SSE 1.6 mph 3.2 mph 77 % 0.0 in
05:45 22.0 °F 17.8 °F 1020.9 in Calm   3.2 mph 77 % 0.0 in
10:45 22.3 °F 18.1 °F 1021.9 in South 5.3 mph 5.3 mph 77 % 0.0 in
10:50 22.3 °F 17.9 °F 1021.9 in WSW 1.9 mph 1.9 mph 76 % 0.0 in
10:55 22.7 °F 18.1 °F 1021.9 in SSE 3.7 mph 3.7 mph 75 % 0.0 in
11:00 23.0 °F 18.1 °F 1021.9 in SW 3.9 mph 3.9 mph 74 % 0.0 in
11:05 22.7 °F 17.8 °F 1021.9 in South 7.4 mph 7.4 mph 74 % 0.0 in
11:10 23.0 °F 17.9 °F 1021.9 in SW 7.4 mph 7.4 mph 73 % 0.0 in
11:15 22.6 °F 17.5 °F 1021.9 in SW 5.6 mph 5.6 mph 73 % 0.0 in
11:20 23.0 °F 17.7 °F 1021.9 in West 3.7 mph 3.7 mph 72 % 0.0 in
11:25 23.0 °F 17.7 °F 1021.9 in ESE 2.6 mph 2.6 mph 72 % 0.0 in
11:30 23.8 °F 18.2 °F 1021.9 in SW 3.7 mph 3.7 mph 71 % 0.0 in
11:35 23.9 °F 18.3 °F 1021.9 in SW 9.3 mph 9.3 mph 71 % 0.0 in
11:40 23.7 °F 17.9 °F 1021.9 in WSW 3.7 mph 3.9 mph 70 % 0.0 in
11:45 24.0 °F 17.7 °F 1021.9 in West 6.1 mph 6.1 mph 68 % 0.0 in
11:50 24.1 °F 17.8 °F 1021.9 in WSW 9.3 mph 9.3 mph 68 % 0.0 in
11:55 24.1 °F 17.8 °F 1021.9 in SW 9.3 mph 9.3 mph 68 % 0.0 in
12:00 24.7 °F 18.2 °F 1021.9 in WNW 7.4 mph 7.4 mph 67 % 0.0 in
12:05 24.6 °F 18.1 °F 1021.9 in SSW 7.4 mph 7.4 mph 67 % 0.0 in
12:10 25.0 °F 17.7 °F 1021.9 in SSW 3.7 mph 3.7 mph 64 % 0.0 in
12:15 24.9 °F 17.9 °F 1021.9 in NW 5.3 mph 5.3 mph 65 % 0.0 in
12:20 25.3 °F 18.0 °F 1021.9 in South 3.7 mph 5.3 mph 64 % 0.0 in
12:25 25.2 °F 17.7 °F 1021.9 in WSW 9.3 mph 9.3 mph 63 % 0.0 in
12:30 25.2 °F 17.7 °F 1021.9 in SW 9.3 mph 9.3 mph 63 % 0.0 in
12:35 25.3 °F 17.5 °F 1021.9 in West 9.3 mph 9.3 mph 62 % 0.0 in
12:50 26.3 °F 18.2 °F 1020.9 in SSE 7.6 mph 7.6 mph 61 % 0.0 in
12:55 26.2 °F 17.6 °F 1020.9 in West 7.4 mph 7.4 mph 59 % 0.0 in
13:00 26.7 °F 17.8 °F 1020.9 in South 6.9 mph 6.9 mph 58 % 0.0 in
13:05 26.2 °F 17.3 °F 1020.9 in WSW 12.2 mph 12.2 mph 58 % 0.0 in
13:10 26.4 °F 17.7 °F 1020.9 in West 9.7 mph 9.7 mph 59 % 0.0 in
13:15 26.7 °F 17.8 °F 1019.9 in WSW 3.7 mph 3.7 mph 58 % 0.0 in
13:20 27.1 °F 17.6 °F 1019.9 in WSW 6.1 mph 6.1 mph 56 % 0.0 in
13:25 27.2 °F 17.7 °F 1019.9 in SW 11.1 mph 11.1 mph 56 % 0.0 in
13:26 27.2 °F 17.7 °F 1019.9 in SW 5.6 mph 5.6 mph 56 % 0.0 in
13:36 27.2 °F 17.1 °F 1019.9 in ESE 3.7 mph 3.7 mph 54 % 0.0 in
13:41 27.3 °F 17.2 °F 1019.9 in SW 9.5 mph 9.5 mph 54 % 0.0 in
13:46 27.2 °F 17.1 °F 1019.9 in SSW 9.3 mph 9.3 mph 54 % 0.0 in
13:51 27.6 °F 17.2 °F 1019.9 in South 5.6 mph 5.6 mph 53 % 0.0 in
13:56 28.0 °F 17.5 °F 1019.9 in South 9.3 mph 9.3 mph 53 % 0.0 in
14:01 27.6 °F 16.8 °F 1019.9 in West 11.1 mph 11.1 mph 52 % 0.0 in
14:06 27.8 °F 17.1 °F 1019.9 in WSW 3.7 mph 3.7 mph 52 % 0.0 in
14:08 28.2 °F 17.4 °F 1019.9 in SW 9.0 mph 9.0 mph 52 % 0.0 in
14:13 28.1 °F 17.3 °F 1019.9 in SSW 5.6 mph 5.6 mph 52 % 0.0 in
14:18 28.3 °F 17.2 °F 1019.9 in South 5.6 mph 5.6 mph 51 % 0.0 in
14:23 28.1 °F 17.0 °F 1019.9 in SSW 9.3 mph 9.3 mph 51 % 0.0 in
14:28 28.2 °F 17.1 °F 1019.9 in SSE 14.8 mph 14.8 mph 51 % 0.0 in
14:33 27.9 °F 17.1 °F 1019.9 in SSE 16.7 mph 16.7 mph 52 % 0.0 in
14:38 28.3 °F 17.5 °F 1019.9 in SSW 13.0 mph 13.0 mph 52 % 0.0 in
14:43 27.8 °F 17.1 °F 1019.9 in SSW 7.4 mph 7.4 mph 52 % 0.0 in
14:48 28.4 °F 17.6 °F 1018.8 in SW 11.1 mph 11.1 mph 52 % 0.0 in
14:53 28.3 °F 17.5 °F 1018.8 in West 9.3 mph 9.3 mph 52 % 0.0 in
14:58 28.3 °F 17.5 °F 1018.8 in SW 9.5 mph 9.5 mph 52 % 0.0 in
15:03 28.6 °F 17.8 °F 1018.8 in WSW 7.4 mph 7.4 mph 52 % 0.0 in
15:08 28.4 °F 17.3 °F 1018.8 in SW 11.1 mph 11.1 mph 51 % 0.0 in
15:13 28.4 °F 17.3 °F 1018.8 in West 11.1 mph 11.1 mph 51 % 0.0 in
15:18 28.4 °F 17.3 °F 1018.8 in WSW 11.9 mph 11.9 mph 51 % 0.0 in
15:23 28.6 °F 17.4 °F 1018.8 in SW 13.0 mph 13.0 mph 51 % 0.0 in
15:28 28.5 °F 17.4 °F 1018.8 in SW 7.4 mph 7.4 mph 51 % 0.0 in
15:33 28.3 °F 17.2 °F 1018.8 in SW 13.0 mph 13.0 mph 51 % 0.0 in
15:38 28.5 °F 17.7 °F 1018.8 in South 7.4 mph 7.4 mph 52 % 0.0 in
15:43 28.5 °F 17.4 °F 1018.8 in WSW 11.1 mph 11.1 mph 51 % 0.0 in
15:48 28.0 °F 16.9 °F 1018.8 in SW 13.0 mph 13.0 mph 51 % 0.0 in
15:58 28.3 °F 17.2 °F 1018.8 in SW 7.4 mph 7.4 mph 51 % 0.0 in
16:08 28.0 °F 17.2 °F 1018.8 in WSW 14.8 mph 14.8 mph 52 % 0.0 in
16:13 27.8 °F 17.1 °F 1018.8 in SW 9.3 mph 9.3 mph 52 % 0.0 in
16:18 27.9 °F 17.1 °F 1018.8 in SSW 14.0 mph 14.0 mph 52 % 0.0 in
16:23 27.8 °F 17.1 °F 1018.8 in SW 14.8 mph 14.8 mph 52 % 0.0 in
16:28 27.5 °F 16.8 °F 1018.8 in SSW 18.5 mph 18.5 mph 52 % 0.0 in
16:33 27.5 °F 17.1 °F 1018.8 in WSW 9.7 mph 9.7 mph 53 % 0.0 in
16:38 27.6 °F 17.2 °F 1018.8 in South 7.4 mph 7.4 mph 53 % 0.0 in
16:43 27.1 °F 16.7 °F 1018.8 in SW 16.7 mph 16.7 mph 53 % 0.0 in
16:48 27.3 °F 17.2 °F 1018.8 in SW 11.9 mph 11.9 mph 54 % 0.0 in
16:49 27.3 °F 17.2 °F 1018.8 in SSW 11.1 mph 11.1 mph 54 % 0.0 in
16:54 27.0 °F 16.9 °F 1018.8 in SSW 13.0 mph 13.0 mph 54 % 0.0 in
16:59 27.0 °F 16.9 °F 1018.8 in SSE 11.1 mph 11.1 mph 54 % 0.0 in
17:04 27.0 °F 16.9 °F 1018.8 in West 13.0 mph 13.0 mph 54 % 0.0 in
17:14 26.9 °F 17.4 °F 1018.8 in SW 11.1 mph 11.1 mph 56 % 0.0 in
17:19 26.6 °F 17.1 °F 1018.8 in West 13.0 mph 13.0 mph 56 % 0.0 in
17:24 26.6 °F 17.1 °F 1018.8 in West 16.7 mph 16.7 mph 56 % 0.0 in
17:29 26.6 °F 17.1 °F 1017.8 in SW 9.7 mph 9.7 mph 56 % 0.0 in
17:34 26.6 °F 17.1 °F 1017.8 in WSW 9.3 mph 9.3 mph 56 % 0.0 in
17:39 26.4 °F 17.2 °F 1017.8 in WSW 13.0 mph 13.0 mph 57 % 0.0 in
17:44 26.4 °F 17.2 °F 1017.8 in SW 14.8 mph 14.8 mph 57 % 0.0 in
17:49 26.2 °F 17.0 °F 1017.8 in WSW 13.0 mph 13.0 mph 57 % 0.0 in
17:54 26.1 °F 17.2 °F 1017.8 in SW 11.1 mph 11.1 mph 58 % 0.0 in
17:59 26.1 °F 17.2 °F 1017.8 in SSW 9.3 mph 9.3 mph 58 % 0.0 in
18:04 26.0 °F 17.1 °F 1017.8 in SSW 7.4 mph 7.4 mph 58 % 0.0 in
18:09 25.7 °F 17.1 °F 1017.8 in SW 11.1 mph 11.1 mph 59 % 0.0 in
18:14 25.6 °F 17.0 °F 1017.8 in West 11.1 mph 11.1 mph 59 % 0.0 in
18:19 25.7 °F 17.1 °F 1017.8 in SW 7.9 mph 7.9 mph 59 % 0.0 in
18:24 25.5 °F 16.9 °F 1017.8 in SSW 9.5 mph 9.5 mph 59 % 0.0 in
18:29 25.2 °F 16.9 °F 1017.8 in WSW 11.1 mph 11.1 mph 60 % 0.0 in
18:34 25.1 °F 16.8 °F 1017.8 in SW 7.4 mph 7.4 mph 60 % 0.0 in
18:39 25.0 °F 16.7 °F 1017.8 in West 9.3 mph 9.3 mph 60 % 0.0 in
18:44 24.9 °F 17.1 °F 1016.8 in SW 9.3 mph 9.3 mph 62 % 0.0 in
18:49 24.7 °F 16.9 °F 1016.8 in SW 8.7 mph 8.7 mph 62 % 0.0 in
18:54 24.4 °F 16.9 °F 1016.8 in SSW 9.3 mph 9.3 mph 63 % 0.0 in
18:59 24.3 °F 16.8 °F 1017.8 in SW 9.3 mph 9.3 mph 63 % 0.0 in
19:04 24.0 °F 16.5 °F 1017.8 in WSW 9.3 mph 9.3 mph 63 % 0.0 in
19:09 23.8 °F 16.8 °F 1017.8 in SW 9.3 mph 9.3 mph 65 % 0.0 in
19:14 23.6 °F 16.6 °F 1017.8 in SW 9.3 mph 9.3 mph 65 % 0.0 in
19:19 23.4 °F 16.7 °F 1017.8 in SW 9.3 mph 9.3 mph 66 % 0.0 in
19:20 19.8 °F 17.2 °F 1017.8 in WSW 1.6 mph 3.2 mph 85 % 0.0 in
19:24 23.2 °F 16.5 °F 1017.8 in WSW 3.9 mph 5.8 mph 66 % 0.0 in
19:29 23.0 °F 16.6 °F 1017.8 in SW 9.3 mph 9.3 mph 67 % 0.0 in
19:30 19.7 °F 17.3 °F 1017.8 in WSW 1.6 mph 1.6 mph 86 % 0.0 in
19:34 22.8 °F 16.6 °F 1017.8 in SW 9.3 mph 9.3 mph 68 % 0.0 in
19:39 22.6 °F 16.4 °F 1017.8 in West 9.3 mph 9.3 mph 68 % 0.0 in
19:40 19.5 °F 17.1 °F 1017.8 in Calm     86 % 0.0 in
19:44 22.5 °F 16.5 °F 1018.8 in South 9.3 mph 9.3 mph 69 % 0.0 in
19:49 22.3 °F 16.6 °F 1018.8 in SSW 5.6 mph 5.6 mph 70 % 0.0 in
19:50 19.2 °F 16.8 °F 1017.8 in Calm   3.2 mph 86 % 0.0 in
19:54 22.1 °F 16.4 °F 1018.8 in SW 9.3 mph 9.3 mph 70 % 0.0 in
19:59 22.0 °F 16.5 °F 1017.8 in SW 11.1 mph 11.1 mph 71 % 0.0 in
20:00 19.1 °F 16.7 °F 1017.8 in Calm   1.6 mph 86 % 0.0 in
20:04 21.8 °F 16.7 °F 1017.8 in SSW 10.0 mph 10.0 mph 73 % 0.0 in
20:09 21.6 °F 16.6 °F 1017.8 in WSW 14.8 mph 14.8 mph 73 % 0.0 in
20:10 19.1 °F 16.9 °F 1017.8 in Calm   1.6 mph 87 % 0.0 in
20:14 21.5 °F 16.4 °F 1018.8 in WSW 11.1 mph 11.1 mph 73 % 0.0 in
20:19 21.4 °F 16.6 °F 1018.8 in WSW 9.3 mph 9.3 mph 74 % 0.0 in
20:20 19.1 °F 16.9 °F 1017.8 in Calm     87 % 0.0 in
20:24 21.3 °F 16.5 °F 1018.8 in WSW 7.4 mph 7.4 mph 74 % 0.0 in
20:29 21.2 °F 16.6 °F 1018.8 in SW 7.6 mph 7.6 mph 75 % 0.0 in
20:30 19.2 °F 17.2 °F 1017.8 in Calm   1.6 mph 88 % 0.0 in
20:34 21.2 °F 16.6 °F 1018.8 in SW 9.3 mph 9.3 mph 75 % 0.0 in
20:39 21.1 °F 16.5 °F 1018.8 in SW 9.3 mph 9.3 mph 75 % 0.0 in
20:40 19.2 °F 17.2 °F 1017.8 in Calm   1.6 mph 88 % 0.0 in
20:44 21.0 °F 16.4 °F 1018.8 in SW 5.6 mph 5.6 mph 75 % 0.0 in
20:49 21.0 °F 16.6 °F 1018.8 in WSW 3.7 mph 3.7 mph 76 % 0.0 in
20:50 19.2 °F 17.2 °F 1017.8 in Calm   1.6 mph 88 % 0.0 in
20:54 20.9 °F 16.7 °F 1018.8 in WSW 3.7 mph 3.7 mph 77 % 0.0 in
20:59 20.8 °F 16.6 °F 1018.8 in West 5.6 mph 5.6 mph 77 % 0.0 in
21:00 19.2 °F 17.2 °F 1017.8 in Calm     88 % 0.0 in
21:04 20.8 °F 16.6 °F 1018.8 in WSW 5.6 mph 5.6 mph 77 % 0.0 in
21:09 20.8 °F 16.6 °F 1018.8 in WSW 6.4 mph 6.4 mph 77 % 0.0 in
21:10 19.2 °F 17.2 °F 1017.8 in Calm   3.2 mph 88 % 0.0 in
21:14 20.7 °F 16.7 °F 1018.8 in WSW 3.9 mph 3.9 mph 78 % 0.0 in
21:19 20.6 °F 16.6 °F 1018.8 in West 5.6 mph 5.6 mph 78 % 0.0 in
21:20 19.1 °F 17.1 °F 1017.8 in Calm   4.8 mph 88 % 0.0 in
21:24 20.6 °F 16.6 °F 1018.8 in SW 5.6 mph 5.6 mph 78 % 0.0 in
21:29 20.5 °F 16.6 °F 1018.8 in West 5.6 mph 5.6 mph 78 % 0.0 in
21:30 19.1 °F 17.1 °F 1017.8 in Calm   1.6 mph 88 % 0.0 in
21:34 20.5 °F 16.7 °F 1018.8 in WSW 4.7 mph 4.7 mph 79 % 0.0 in
21:39 20.4 °F 16.6 °F 1018.8 in SW 7.4 mph 7.4 mph 79 % 0.0 in
21:40 19.1 °F 17.1 °F 1017.8 in Calm   1.6 mph 88 % 0.0 in
21:44 20.4 °F 16.6 °F 1018.8 in SW 7.4 mph 7.4 mph 79 % 0.0 in
21:49 20.4 °F 16.8 °F 1018.8 in West 5.8 mph 5.8 mph 80 % 0.0 in
21:50 19.1 °F 17.1 °F 1016.8 in NNW 1.6 mph 3.2 mph 88 % 0.0 in
21:54 20.3 °F 16.7 °F 1018.8 in WSW 7.4 mph 7.4 mph 80 % 0.0 in
21:59 20.3 °F 16.7 °F 1018.8 in SW 7.4 mph 7.4 mph 80 % 0.0 in
22:00 19.1 °F 17.1 °F 1017.8 in Calm   4.8 mph 88 % 0.0 in
22:04 20.3 °F 16.7 °F 1018.8 in WSW 7.4 mph 7.4 mph 80 % 0.0 in
22:09 20.2 °F 16.8 °F 1018.8 in WSW 5.6 mph 5.6 mph 81 % 0.0 in
22:10 19.1 °F 17.1 °F 1017.8 in Calm   3.2 mph 88 % 0.0 in
22:14 20.2 °F 16.8 °F 1018.8 in WSW 3.7 mph 3.7 mph 81 % 0.0 in
22:19 20.2 °F 16.8 °F 1018.8 in SW 9.3 mph 9.3 mph 81 % 0.0 in
22:20 19.1 °F 17.1 °F 1016.8 in Calm   1.6 mph 88 % 0.0 in
22:24 20.2 °F 17.0 °F 1018.8 in West 1.9 mph   82 % 0.0 in
22:29 20.1 °F 16.9 °F 1018.8 in WSW 3.7 mph 3.7 mph 82 % 0.0 in
22:30 19.0 °F 16.9 °F 1017.8 in NNW 1.6 mph 3.2 mph 88 % 0.0 in
22:34 20.1 °F 16.9 °F 1018.8 in SW 3.7 mph   82 % 0.0 in
22:39 20.1 °F 16.9 °F 1018.8 in WSW 1.9 mph 1.9 mph 82 % 0.0 in
22:40 19.0 °F 16.9 °F 1017.8 in Calm   3.2 mph 88 % 0.0 in
22:49 20.0 °F 16.8 °F 1018.8 in West 7.4 mph 7.4 mph 82 % 0.0 in
22:50 19.0 °F 16.9 °F 1017.8 in NW 1.6 mph 1.6 mph 88 % 0.0 in
22:54 20.0 °F 16.8 °F 1018.8 in West 3.7 mph 3.7 mph 82 % 0.0 in
22:59 20.0 °F 16.8 °F 1018.8 in WSW 3.7 mph 3.7 mph 82 % 0.0 in
23:00 19.1 °F 17.1 °F 1016.8 in Calm     88 % 0.0 in
23:04 20.0 °F 17.0 °F 1018.8 in SW 1.9 mph 1.9 mph 83 % 0.0 in
23:09 19.9 °F 17.1 °F 1018.8 in West 3.7 mph 3.7 mph 84 % 0.0 in
23:10 19.1 °F 17.1 °F 1016.8 in North 1.6 mph 3.2 mph 88 % 0.0 in
23:14 20.0 °F 17.0 °F 1018.8 in WSW 4.2 mph 4.2 mph 83 % 0.0 in
23:19 19.9 °F 17.1 °F 1018.8 in SW 5.6 mph 5.6 mph 84 % 0.0 in
23:20 19.1 °F 17.1 °F 1017.8 in North 1.6 mph 3.2 mph 88 % 0.0 in
23:29 19.8 °F 17.2 °F 1018.8 in SW 1.9 mph 1.9 mph 85 % 0.0 in
23:30 19.0 °F 16.8 °F 1016.8 in NNW 1.6 mph 3.2 mph 87 % 0.0 in
23:34 19.9 °F 17.3 °F 1018.8 in SW 1.9 mph   85 % 0.0 in
23:40 18.9 °F 16.7 °F 1016.8 in NNW 3.2 mph 4.8 mph 87 % 0.0 in
23:44 19.9 °F 17.1 °F 1017.8 in West 4.2 mph 4.2 mph 84 % 0.0 in
23:49 19.9 °F 17.3 °F 1017.8 in West 5.6 mph 5.6 mph 85 % 0.0 in
23:50 18.6 °F 16.4 °F 1017.8 in NW 4.8 mph 6.4 mph 87 % 0.0 in
23:59 19.9 °F 17.3 °F 1018.8 in WNW 3.7 mph 3.7 mph 85 % 0.0 in
Meteo Sesrovires
Elogis d' Weather Underground - 1.5 mb

Guio original per  Jim McMurry - jmcmurry@mwt.net Adaptat per a la plantilla per  Wim van der Kuil - Leuven-Template.eu

Trobareu la nostra informacio del temps tambe a:

Weather Underground

AWEKAS